Time;durP1;ratioP1;P1;durP2;ratioP2;P2;SDS_P1;SDS_P2;PMS_P1;PMS_P2;Temp;Humidity;BMP_temperature;BMP_pressure;BME280_temperature;BME280_humidity;BME280_pressure;Samples;Min_cycle;Max_cycle;Signal;HPM_P1;HPM_P2
2023/01/31 00:01:09;;;;;;;;;;;19.10;50.80;;;;;;7674977;23;19943;-71
2023/01/31 00:04:11;;;;;;;;;;;19.10;50.70;;;;;;7674287;23;19916;-71
2023/01/31 00:07:11;;;;;;;;;;;19.10;50.70;;;;;;7674754;23;19940;-71
2023/01/31 00:10:12;;;;;;;;;;;19.10;50.80;;;;;;7674641;23;19987;-71
2023/01/31 00:13:12;;;;;;;;;;;19.10;50.80;;;;;;7674749;23;19910;-71
2023/01/31 00:16:14;;;;;;;;;;;19.10;50.70;;;;;;7674848;23;19931;-71
2023/01/31 00:19:14;;;;;;;;;;;19.10;50.70;;;;;;7674510;23;19947;-71
2023/01/31 00:22:15;;;;;;;;;;;19.10;50.80;;;;;;7673026;23;19987;-71
2023/01/31 00:25:15;;;;;;;;;;;19.10;50.70;;;;;;7674552;23;19904;-71
2023/01/31 00:28:16;;;;;;;;;;;19.10;50.70;;;;;;7674701;23;19904;-71
2023/01/31 00:31:17;;;;;;;;;;;19.10;50.80;;;;;;7673838;23;19923;-71
2023/01/31 00:34:17;;;;;;;;;;;19.10;50.70;;;;;;7674673;23;19904;-71
2023/01/31 00:37:19;;;;;;;;;;;19.10;50.80;;;;;;7672643;23;19904;-70
2023/01/31 00:40:19;;;;;;;;;;;19.10;50.70;;;;;;7674304;23;19931;-71
2023/01/31 00:43:20;;;;;;;;;;;19.10;50.80;;;;;;7673896;23;19995;-71
2023/01/31 00:46:21;;;;;;;;;;;19.10;50.70;;;;;;7674123;23;19912;-71
2023/01/31 00:49:21;;;;;;;;;;;19.10;50.90;;;;;;7673050;23;19911;-71
2023/01/31 00:52:22;;;;;;;;;;;19.10;50.90;;;;;;7674320;23;20248;-71
2023/01/31 00:55:22;;;;;;;;;;;19.10;50.70;;;;;;7672570;23;19953;-70
2023/01/31 00:58:23;;;;;;;;;;;19.10;50.70;;;;;;7673611;23;19904;-71
2023/01/31 01:01:25;;;;;;;;;;;19.10;50.80;;;;;;7674450;23;19911;-70
2023/01/31 01:04:26;;;;;;;;;;;19.10;50.90;;;;;;7673407;23;20047;-71
2023/01/31 01:07:26;;;;;;;;;;;19.10;50.80;;;;;;7672831;23;19986;-71
2023/01/31 01:10:27;;;;;;;;;;;19.10;50.70;;;;;;7672587;23;19912;-71
2023/01/31 01:13:27;;;;;;;;;;;19.10;50.70;;;;;;7672440;23;20148;-71
2023/01/31 01:16:36;;;;;;;;;;;19.10;50.90;;;;;;7673873;23;19904;-71
2023/01/31 01:19:36;;;;;;;;;;;19.10;50.80;;;;;;7674165;23;19971;-70
2023/01/31 01:22:38;;;;;;;;;;;19.10;50.90;;;;;;7673623;23;19912;-71
2023/01/31 01:25:42;;;;;;;;;;;19.10;50.70;;;;;;7673873;23;19904;-71
2023/01/31 01:28:43;;;;;;;;;;;19.10;50.70;;;;;;7673967;23;19912;-71
2023/01/31 01:31:43;;;;;;;;;;;19.10;50.80;;;;;;7673765;23;19927;-71
2023/01/31 01:34:44;;;;;;;;;;;19.10;50.80;;;;;;7672196;23;19915;-71
2023/01/31 01:37:44;;;;;;;;;;;19.10;50.70;;;;;;7673849;23;20209;-71
2023/01/31 01:40:45;;;;;;;;;;;19.10;50.90;;;;;;7673856;23;19924;-71
2023/01/31 01:43:45;;;;;;;;;;;19.10;50.70;;;;;;7671780;23;20013;-71
2023/01/31 01:46:46;;;;;;;;;;;19.10;50.70;;;;;;7673025;23;19904;-69
2023/01/31 01:49:49;;;;;;;;;;;19.10;50.80;;;;;;7673483;23;19979;-70
2023/01/31 01:52:58;;;;;;;;;;;19.10;50.80;;;;;;7671173;23;19908;-70
2023/01/31 01:56:10;;;;;;;;;;;19.10;50.80;;;;;;7673390;23;20240;-70
2023/01/31 01:59:23;;;;;;;;;;;19.10;50.80;;;;;;7674002;23;19908;-70
2023/01/31 02:02:24;;;;;;;;;;;19.10;50.80;;;;;;7675254;23;19908;-70
2023/01/31 02:05:28;;;;;;;;;;;19.10;50.80;;;;;;7673620;23;19904;-69
2023/01/31 02:08:30;;;;;;;;;;;19.10;50.90;;;;;;7675346;23;19931;-70
2023/01/31 02:11:31;;;;;;;;;;;19.10;50.70;;;;;;7675592;23;19943;-70
2023/01/31 02:14:32;;;;;;;;;;;19.10;50.80;;;;;;7673727;23;20276;-69
2023/01/31 02:17:32;;;;;;;;;;;19.10;50.80;;;;;;7674993;23;20010;-70
2023/01/31 02:20:45;;;;;;;;;;;19.10;50.90;;;;;;7675678;23;19966;-70
2023/01/31 02:23:58;;;;;;;;;;;19.10;50.80;;;;;;7674722;23;19991;-70
2023/01/31 02:27:04;;;;;;;;;;;19.10;50.90;;;;;;7675427;23;19905;-69
2023/01/31 02:30:23;;;;;;;;;;;19.10;50.70;;;;;;7673480;23;19908;-69
2023/01/31 02:33:43;;;;;;;;;;;19.10;50.70;;;;;;7672780;23;20011;-70
2023/01/31 02:37:02;;;;;;;;;;;19.10;50.70;;;;;;7674007;23;19904;-70
2023/01/31 02:40:08;;;;;;;;;;;19.10;50.70;;;;;;7675202;23;19919;-69
2023/01/31 02:43:19;;;;;;;;;;;19.10;50.80;;;;;;7674872;23;19955;-70
2023/01/31 02:46:21;;;;;;;;;;;19.10;50.70;;;;;;7673117;23;20292;-69
2023/01/31 02:49:34;;;;;;;;;;;19.10;50.90;;;;;;7673156;23;20250;-71
2023/01/31 02:52:47;;;;;;;;;;;19.10;50.80;;;;;;7674752;23;19904;-72
2023/01/31 02:59:14;;;;;;;;;;;19.10;50.80;;;;;;7674801;23;19912;-70
2023/01/31 03:02:14;;;;;;;;;;;19.10;50.70;;;;;;7674819;23;19946;-70
2023/01/31 03:05:16;;;;;;;;;;;19.10;50.80;;;;;;7674243;23;19986;-69
2023/01/31 03:08:21;;;;;;;;;;;19.10;50.70;;;;;;7674630;23;19905;-69
2023/01/31 03:11:25;;;;;;;;;;;19.10;50.70;;;;;;7674635;23;19931;-69
2023/01/31 03:14:30;;;;;;;;;;;19.10;50.70;;;;;;7674460;23;20031;-70
2023/01/31 03:18:00;;;;;;;;;;;19.10;51.50;;;;;;7674035;23;19912;-69
2023/01/31 03:21:00;;;;;;;;;;;19.10;50.80;;;;;;7661031;23;19904;-70
2023/01/31 03:24:03;;;;;;;;;;;19.10;50.90;;;;;;7672304;23;19912;-70
2023/01/31 03:27:04;;;;;;;;;;;19.10;50.70;;;;;;7672907;23;19914;-69
2023/01/31 03:30:08;;;;;;;;;;;19.10;50.70;;;;;;7674334;23;19951;-70
2023/01/31 03:33:14;;;;;;;;;;;19.10;50.90;;;;;;7674335;23;20035;-70
2023/01/31 03:36:24;;;;;;;;;;;19.10;50.80;;;;;;7674021;23;19946;-70
2023/01/31 03:39:32;;;;;;;;;;;19.10;50.70;;;;;;7674139;23;19908;-70
2023/01/31 03:42:39;;;;;;;;;;;19.10;50.80;;;;;;7672805;23;20359;-69
2023/01/31 03:45:40;;;;;;;;;;;19.10;50.70;;;;;;7672881;23;19908;-70
2023/01/31 03:48:42;;;;;;;;;;;19.10;50.60;;;;;;7674160;23;19904;-69
2023/01/31 03:51:49;;;;;;;;;;;19.10;50.70;;;;;;7672562;23;20394;-70
2023/01/31 03:54:56;;;;;;;;;;;19.10;50.80;;;;;;7672407;23;19987;-68
2023/01/31 03:57:58;;;;;;;;;;;19.10;51.40;;;;;;7673966;23;20251;-70
2023/01/31 04:01:01;;;;;;;;;;;19.10;50.70;;;;;;7672555;23;19915;-71
2023/01/31 04:04:06;;;;;;;;;;;19.10;50.90;;;;;;7673934;23;19982;-70
2023/01/31 04:07:07;;;;;;;;;;;19.10;50.70;;;;;;7673858;23;19919;-71
2023/01/31 04:10:11;;;;;;;;;;;19.10;50.70;;;;;;7673711;23;19908;-70
2023/01/31 04:13:11;;;;;;;;;;;19.10;50.70;;;;;;7673955;23;19911;-70
2023/01/31 04:16:12;;;;;;;;;;;19.10;50.70;;;;;;7673566;23;19932;-70
2023/01/31 04:19:12;;;;;;;;;;;19.10;50.80;;;;;;7673004;23;19915;-70
2023/01/31 04:22:13;;;;;;;;;;;19.10;50.70;;;;;;7672480;23;19905;-70
2023/01/31 04:25:14;;;;;;;;;;;19.10;50.80;;;;;;7672225;23;19904;-70
2023/01/31 04:28:15;;;;;;;;;;;19.10;50.70;;;;;;7673515;23;20251;-70
2023/01/31 04:31:15;;;;;;;;;;;19.10;50.70;;;;;;7671900;23;19951;-70
2023/01/31 04:34:16;;;;;;;;;;;19.10;50.80;;;;;;7673732;23;19987;-70
2023/01/31 04:37:16;;;;;;;;;;;19.00;50.90;;;;;;7673797;23;19904;-70
2023/01/31 04:40:17;;;;;;;;;;;19.10;50.70;;;;;;7673785;23;19979;-70
2023/01/31 04:43:18;;;;;;;;;;;19.10;50.70;;;;;;7672866;23;19990;-69
2023/01/31 04:46:18;;;;;;;;;;;19.10;50.80;;;;;;7673619;23;19938;-70
2023/01/31 04:49:19;;;;;;;;;;;19.10;50.80;;;;;;7673381;23;19904;-70
2023/01/31 04:52:19;;;;;;;;;;;19.10;50.80;;;;;;7673948;23;19915;-70
2023/01/31 04:55:20;;;;;;;;;;;19.10;50.80;;;;;;7673232;23;19905;-70
2023/01/31 04:58:22;;;;;;;;;;;19.10;50.70;;;;;;7671950;23;19904;-70
2023/01/31 05:01:23;;;;;;;;;;;19.10;50.80;;;;;;7671509;23;19912;-70
2023/01/31 05:04:25;;;;;;;;;;;19.00;50.70;;;;;;7673329;23;19982;-70
2023/01/31 05:07:26;;;;;;;;;;;19.10;50.80;;;;;;7673763;23;19915;-70
2023/01/31 05:10:26;;;;;;;;;;;19.10;50.80;;;;;;7673526;23;20308;-70
2023/01/31 05:13:29;;;;;;;;;;;19.10;50.80;;;;;;7673493;23;20290;-70
2023/01/31 05:16:29;;;;;;;;;;;19.10;50.80;;;;;;7672929;23;19926;-71
2023/01/31 05:19:30;;;;;;;;;;;19.10;50.70;;;;;;7671627;23;19904;-70
2023/01/31 05:22:31;;;;;;;;;;;19.10;50.70;;;;;;7671599;23;19912;-70
2023/01/31 05:25:32;;;;;;;;;;;19.10;50.80;;;;;;7673163;23;20344;-70
2023/01/31 05:28:32;;;;;;;;;;;19.10;50.70;;;;;;7672748;23;19913;-70
2023/01/31 05:31:33;;;;;;;;;;;19.10;50.80;;;;;;7672589;23;19943;-70
2023/01/31 05:34:34;;;;;;;;;;;19.10;50.90;;;;;;7673044;23;19909;-70
2023/01/31 05:37:35;;;;;;;;;;;19.10;50.80;;;;;;7671541;23;20251;-70
2023/01/31 05:40:35;;;;;;;;;;;19.00;50.80;;;;;;7673046;23;19930;-70
2023/01/31 05:43:36;;;;;;;;;;;19.10;50.80;;;;;;7672852;23;19919;-71
2023/01/31 05:46:37;;;;;;;;;;;19.10;50.70;;;;;;7672944;23;19912;-70
2023/01/31 05:49:38;;;;;;;;;;;19.00;50.80;;;;;;7670982;23;20424;-70
2023/01/31 05:52:38;;;;;;;;;;;19.10;50.80;;;;;;7672857;23;19910;-71
2023/01/31 05:55:39;;;;;;;;;;;19.10;50.80;;;;;;7671395;23;19908;-70
2023/01/31 05:58:40;;;;;;;;;;;19.10;50.80;;;;;;7670917;23;19987;-70
2023/01/31 06:01:41;;;;;;;;;;;19.10;50.90;;;;;;7672579;23;20325;-70
2023/01/31 06:04:42;;;;;;;;;;;19.10;51.00;;;;;;7672332;23;19994;-70
2023/01/31 06:07:42;;;;;;;;;;;19.00;50.70;;;;;;7671980;23;19909;-69
2023/01/31 06:10:43;;;;;;;;;;;19.10;50.90;;;;;;7672255;23;19904;-70
2023/01/31 06:13:44;;;;;;;;;;;19.10;50.80;;;;;;7664501;23;19956;-71
2023/01/31 06:16:44;;;;;;;;;;;19.10;50.80;;;;;;7653598;23;19909;-69
2023/01/31 06:19:45;;;;;;;;;;;19.10;51.20;;;;;;7672380;23;19905;-72
2023/01/31 06:22:46;;;;;;;;;;;19.10;51.10;;;;;;7654164;23;19915;-70
2023/01/31 06:25:50;;;;;;;;;;;19.10;51.00;;;;;;7671087;23;19979;-70
2023/01/31 06:28:51;;;;;;;;;;;19.10;50.80;;;;;;7671703;23;20209;-71
2023/01/31 06:31:52;;;;;;;;;;;19.10;50.80;;;;;;7653715;23;19923;-69
2023/01/31 06:34:53;;;;;;;;;;;19.10;50.80;;;;;;7664098;23;19916;-70
2023/01/31 06:37:55;;;;;;;;;;;19.10;50.90;;;;;;7671516;23;20185;-71
2023/01/31 06:40:56;;;;;;;;;;;19.10;50.90;;;;;;7674250;23;20220;-69
2023/01/31 06:43:56;;;;;;;;;;;19.10;50.90;;;;;;7673875;23;19962;-70
2023/01/31 06:46:57;;;;;;;;;;;19.10;50.80;;;;;;7674139;23;19919;-71
2023/01/31 06:49:58;;;;;;;;;;;19.10;50.80;;;;;;7675717;23;19916;-72
2023/01/31 06:52:59;;;;;;;;;;;19.20;50.80;;;;;;7676278;23;20267;-69
2023/01/31 06:56:00;;;;;;;;;;;19.20;50.90;;;;;;7674220;23;19919;-70
2023/01/31 06:59:00;;;;;;;;;;;19.20;50.80;;;;;;7673123;23;19979;-69
2023/01/31 07:02:01;;;;;;;;;;;19.20;50.90;;;;;;7679682;23;19904;-70
2023/01/31 07:05:01;;;;;;;;;;;19.20;50.90;;;;;;7677160;23;19908;-69
2023/01/31 07:08:02;;;;;;;;;;;19.20;50.90;;;;;;7677390;23;19908;-72
2023/01/31 07:11:03;;;;;;;;;;;19.10;50.80;;;;;;7676633;23;19916;-70
2023/01/31 07:14:04;;;;;;;;;;;19.20;50.90;;;;;;7677884;23;19939;-71
2023/01/31 07:17:04;;;;;;;;;;;19.20;50.90;;;;;;7676915;23;19991;-72
2023/01/31 07:20:05;;;;;;;;;;;19.20;50.90;;;;;;7676111;23;19905;-68
2023/01/31 07:23:06;;;;;;;;;;;19.10;50.80;;;;;;7678261;23;19919;-69
2023/01/31 07:26:06;;;;;;;;;;;19.20;51.00;;;;;;7678091;23;20408;-71
2023/01/31 07:29:07;;;;;;;;;;;19.20;51.00;;;;;;7676726;23;19904;-70
2023/01/31 07:32:08;;;;;;;;;;;19.10;50.20;;;;;;7675200;23;19931;-68
2023/01/31 07:35:08;;;;;;;;;;;19.20;50.30;;;;;;7676925;23;19908;-70
2023/01/31 07:38:09;;;;;;;;;;;19.20;50.50;;;;;;7676207;23;19905;-70
2023/01/31 07:41:10;;;;;;;;;;;19.20;50.40;;;;;;7676672;23;19904;-70
2023/01/31 07:44:10;;;;;;;;;;;19.20;50.50;;;;;;7675636;23;19916;-70
2023/01/31 07:47:11;;;;;;;;;;;19.20;50.40;;;;;;7674790;23;20371;-69
2023/01/31 07:50:12;;;;;;;;;;;19.20;50.50;;;;;;7676475;23;19974;-70
2023/01/31 07:53:12;;;;;;;;;;;19.20;50.40;;;;;;7674093;23;19908;-71
2023/01/31 07:56:14;;;;;;;;;;;19.20;50.30;;;;;;7675960;23;19910;-70
2023/01/31 07:59:16;;;;;;;;;;;19.20;50.20;;;;;;7676545;23;19939;-71
2023/01/31 08:05:37;;;;;;;;;;;19.20;50.20;;;;;;7676693;23;19968;-69
2023/01/31 08:08:38;;;;;;;;;;;19.20;50.30;;;;;;7677186;23;20031;-69
2023/01/31 08:11:38;;;;;;;;;;;19.20;50.20;;;;;;7675183;23;19908;-69
2023/01/31 08:14:39;;;;;;;;;;;19.20;50.20;;;;;;7677021;23;19915;-70
2023/01/31 08:17:39;;;;;;;;;;;19.20;50.20;;;;;;7675075;23;20001;-69
2023/01/31 08:20:40;;;;;;;;;;;19.20;50.20;;;;;;7676951;23;19904;-69
2023/01/31 08:23:41;;;;;;;;;;;19.20;50.20;;;;;;7676665;23;20018;-70
2023/01/31 08:26:42;;;;;;;;;;;19.20;50.20;;;;;;7676033;23;19908;-69
2023/01/31 08:29:43;;;;;;;;;;;19.20;50.20;;;;;;7676928;23;19914;-70
2023/01/31 08:32:43;;;;;;;;;;;19.20;50.10;;;;;;7674837;23;20233;-69
2023/01/31 08:35:44;;;;;;;;;;;19.20;50.10;;;;;;7675400;23;19905;-70
2023/01/31 08:38:44;;;;;;;;;;;19.20;50.20;;;;;;7676611;23;19911;-70
2023/01/31 08:41:46;;;;;;;;;;;19.20;50.20;;;;;;7675127;23;19904;-69
2023/01/31 08:44:47;;;;;;;;;;;19.20;50.20;;;;;;7676537;23;19987;-69
2023/01/31 08:47:51;;;;;;;;;;;19.20;50.20;;;;;;7676717;23;20640;-69
2023/01/31 08:50:52;;;;;;;;;;;19.20;50.20;;;;;;7675008;23;19957;-69
2023/01/31 08:53:53;;;;;;;;;;;19.20;50.20;;;;;;7676206;23;20287;-69
2023/01/31 08:56:53;;;;;;;;;;;19.20;50.20;;;;;;7674712;23;19912;-69
2023/01/31 08:59:55;;;;;;;;;;;19.20;50.20;;;;;;7675033;23;19904;-69
2023/01/31 09:02:59;;;;;;;;;;;19.20;50.20;;;;;;7676496;23;20247;-69
2023/01/31 09:06:00;;;;;;;;;;;19.20;50.20;;;;;;7676478;23;19908;-69
2023/01/31 09:09:01;;;;;;;;;;;19.20;50.30;;;;;;7676884;23;20342;-69
2023/01/31 09:12:02;;;;;;;;;;;19.20;50.30;;;;;;7674910;23;19908;-69
2023/01/31 09:15:03;;;;;;;;;;;19.20;50.30;;;;;;7676507;23;19939;-69
2023/01/31 09:18:04;;;;;;;;;;;19.20;50.40;;;;;;7675674;23;20376;-70
2023/01/31 09:21:06;;;;;;;;;;;19.20;50.50;;;;;;7669620;23;20328;-69
2023/01/31 09:24:08;;;;;;;;;;;19.20;50.50;;;;;;7673659;23;20247;-69
2023/01/31 09:27:09;;;;;;;;;;;19.20;50.50;;;;;;7674730;23;19968;-69
2023/01/31 09:30:10;;;;;;;;;;;19.20;50.60;;;;;;7675048;23;19975;-69
2023/01/31 09:33:11;;;;;;;;;;;19.20;50.60;;;;;;7675050;23;19977;-69
2023/01/31 09:36:19;;;;;;;;;;;19.20;50.60;;;;;;7675314;23;19916;-67
2023/01/31 09:39:20;;;;;;;;;;;19.20;50.70;;;;;;7673812;23;20243;-69
2023/01/31 09:42:22;;;;;;;;;;;19.10;50.70;;;;;;7675220;23;19912;-69
2023/01/31 09:45:30;;;;;;;;;;;19.20;50.20;;;;;;7675099;23;19955;-69
2023/01/31 09:48:34;;;;;;;;;;;19.20;50.10;;;;;;7673690;23;19975;-70
2023/01/31 09:51:36;;;;;;;;;;;19.20;50.20;;;;;;7673396;23;19904;-69
2023/01/31 09:54:38;;;;;;;;;;;19.20;50.10;;;;;;7675102;23;19904;-70
2023/01/31 09:57:52;;;;;;;;;;;19.20;50.40;;;;;;7674958;23;19998;-70
2023/01/31 10:01:02;;;;;;;;;;;19.20;50.30;;;;;;7675866;23;19939;-70
2023/01/31 10:04:18;;;;;;;;;;;19.20;50.50;;;;;;7675378;23;20004;-71
2023/01/31 10:07:23;;;;;;;;;;;19.20;50.40;;;;;;7675143;23;19959;-71
2023/01/31 10:10:30;;;;;;;;;;;19.20;50.60;;;;;;7674980;23;19904;-71
2023/01/31 10:13:35;;;;;;;;;;;19.20;50.60;;;;;;7673617;23;19908;-71
2023/01/31 10:16:40;;;;;;;;;;;19.20;50.70;;;;;;7663245;23;19991;-72
2023/01/31 10:19:50;;;;;;;;;;;19.20;50.80;;;;;;7676410;23;19905;-71
2023/01/31 10:23:09;;;;;;;;;;;19.20;51.00;;;;;;7676391;23;19909;-71
2023/01/31 10:26:13;;;;;;;;;;;19.30;50.90;;;;;;7677593;23;19908;-71
2023/01/31 10:29:26;;;;;;;;;;;19.20;50.80;;;;;;7677425;23;19904;-70
2023/01/31 10:32:30;;;;;;;;;;;19.30;50.80;;;;;;7677256;23;19928;-71
2023/01/31 10:35:38;;;;;;;;;;;19.30;50.80;;;;;;7677032;23;19959;-71
2023/01/31 10:38:54;;;;;;;;;;;19.30;50.80;;;;;;7676573;23;19909;-72
2023/01/31 10:42:19;;;;;;;;;;;19.30;50.80;;;;;;7677232;23;19911;-71
2023/01/31 10:45:21;;;;;;;;;;;19.30;50.90;;;;;;7675392;23;19908;-71
2023/01/31 10:48:25;;;;;;;;;;;19.30;50.80;;;;;;7677075;23;19915;-72
2023/01/31 10:51:39;;;;;;;;;;;19.30;50.90;;;;;;7675333;23;19980;-72
2023/01/31 10:54:46;;;;;;;;;;;19.30;50.90;;;;;;7677092;23;19936;-71
2023/01/31 10:57:47;;;;;;;;;;;19.30;51.00;;;;;;7676338;23;19908;-71
2023/01/31 11:00:48;;;;;;;;;;;19.20;50.80;;;;;;7677100;23;19954;-71
2023/01/31 11:03:50;;;;;;;;;;;19.30;50.90;;;;;;7676690;23;19908;-71
2023/01/31 11:06:51;;;;;;;;;;;19.20;50.90;;;;;;7677214;23;19908;-71
2023/01/31 11:09:53;;;;;;;;;;;19.20;50.90;;;;;;7673306;23;20247;-70
2023/01/31 11:13:08;;;;;;;;;;;19.20;50.90;;;;;;7680487;23;19915;-71
2023/01/31 11:16:10;;;;;;;;;;;19.20;50.80;;;;;;7676496;23;19931;-70
2023/01/31 11:19:19;;;;;;;;;;;19.20;50.90;;;;;;7674229;23;19911;-71
2023/01/31 11:22:25;;;;;;;;;;;19.20;51.00;;;;;;7676694;23;19909;-71
2023/01/31 11:25:28;;;;;;;;;;;19.20;51.20;;;;;;7674555;23;19908;-71
2023/01/31 11:28:34;;;;;;;;;;;19.30;51.20;;;;;;7676511;23;19931;-71
2023/01/31 11:31:39;;;;;;;;;;;19.30;51.30;;;;;;7676310;23;19920;-71
2023/01/31 11:34:53;;;;;;;;;;;19.30;51.00;;;;;;7676707;23;19908;-71
2023/01/31 11:38:09;;;;;;;;;;;19.40;50.90;;;;;;7676584;23;19904;-71
2023/01/31 11:41:30;;;;;;;;;;;19.30;50.80;;;;;;7676477;23;20007;-70
2023/01/31 11:44:30;;;;;;;;;;;19.30;50.70;;;;;;7665013;23;19919;-72
2023/01/31 11:47:51;;;;;;;;;;;19.30;50.70;;;;;;7676939;23;20415;-70
2023/01/31 11:51:00;;;;;;;;;;;19.40;51.40;;;;;;7675996;23;20392;-71
2023/01/31 11:54:03;;;;;;;;;;;19.30;50.50;;;;;;7676189;23;19975;-71
2023/01/31 11:57:12;;;;;;;;;;;19.30;50.50;;;;;;7676807;23;19932;-71
2023/01/31 12:00:22;;;;;;;;;;;19.40;50.50;;;;;;7676190;23;19908;-70
2023/01/31 12:03:23;;;;;;;;;;;19.40;50.50;;;;;;7675513;23;19919;-71
2023/01/31 12:06:28;;;;;;;;;;;19.40;50.70;;;;;;7675088;23;19904;-71
2023/01/31 12:09:38;;;;;;;;;;;19.40;51.00;;;;;;7673822;23;20386;-71
2023/01/31 12:12:42;;;;;;;;;;;19.40;51.10;;;;;;7676219;23;19911;-76
2023/01/31 12:15:51;;;;;;;;;;;19.30;51.00;;;;;;7674812;23;20359;-71
2023/01/31 12:18:57;;;;;;;;;;;19.30;51.00;;;;;;7672857;23;19951;-71
2023/01/31 12:22:06;;;;;;;;;;;19.30;50.80;;;;;;7675271;23;19910;-71
2023/01/31 12:25:14;;;;;;;;;;;19.30;50.90;;;;;;7674165;23;19908;-71
2023/01/31 12:28:21;;;;;;;;;;;19.30;50.90;;;;;;7675555;23;19911;-71
2023/01/31 12:31:32;;;;;;;;;;;19.30;51.10;;;;;;7675112;23;19917;-71
2023/01/31 12:34:38;;;;;;;;;;;19.20;51.10;;;;;;7675115;23;19935;-72
2023/01/31 12:37:56;;;;;;;;;;;19.20;51.00;;;;;;7673396;23;19959;-71
2023/01/31 12:41:16;;;;;;;;;;;19.20;51.10;;;;;;7673451;23;19908;-72
2023/01/31 12:44:16;;;;;;;;;;;19.20;51.00;;;;;;7675378;23;19998;-71
2023/01/31 12:47:17;;;;;;;;;;;19.20;51.10;;;;;;7675711;23;19979;-70
2023/01/31 12:50:25;;;;;;;;;;;19.20;51.20;;;;;;7674952;23;19905;-71
2023/01/31 12:54:01;;;;;;;;;;;19.20;51.30;;;;;;7673483;23;19905;-72
2023/01/31 12:57:20;;;;;;;;;;;19.20;51.10;;;;;;7599532;23;19913;-70
2023/01/31 13:00:21;;;;;;;;;;;19.20;51.10;;;;;;7674698;23;19931;-71
2023/01/31 13:03:30;;;;;;;;;;;19.20;51.10;;;;;;7673541;23;20003;-71
2023/01/31 13:06:33;;;;;;;;;;;19.20;51.10;;;;;;7675115;23;19904;-70
2023/01/31 13:09:35;;;;;;;;;;;19.20;51.20;;;;;;7673787;23;19908;-70
2023/01/31 13:12:36;;;;;;;;;;;19.20;51.10;;;;;;7672530;23;19970;-70
2023/01/31 13:15:49;;;;;;;;;;;19.20;51.10;;;;;;7674796;23;19904;-71
2023/01/31 13:18:51;;;;;;;;;;;19.20;51.10;;;;;;7672585;23;19947;-72
2023/01/31 13:21:55;;;;;;;;;;;19.20;51.20;;;;;;7672953;23;19908;-70
2023/01/31 13:25:04;;;;;;;;;;;19.20;51.90;;;;;;7674097;23;19998;-71
2023/01/31 13:28:10;;;;;;;;;;;19.20;51.20;;;;;;7674726;23;19983;-71
2023/01/31 13:31:15;;;;;;;;;;;19.20;51.20;;;;;;7674122;23;19912;-71
2023/01/31 13:34:21;;;;;;;;;;;19.20;51.20;;;;;;7675073;23;19955;-70
2023/01/31 13:37:24;;;;;;;;;;;19.20;51.20;;;;;;7673348;23;19936;-67
2023/01/31 13:40:27;;;;;;;;;;;19.20;51.50;;;;;;7674441;23;19950;-73
2023/01/31 13:43:28;;;;;;;;;;;19.20;51.00;;;;;;7674404;23;20393;-71
2023/01/31 13:46:28;;;;;;;;;;;19.10;50.80;;;;;;7674956;23;19908;-71
2023/01/31 13:49:35;;;;;;;;;;;19.20;50.80;;;;;;7673099;23;19963;-71
2023/01/31 13:52:44;;;;;;;;;;;19.20;51.00;;;;;;7675759;23;20052;-72
2023/01/31 13:55:46;;;;;;;;;;;19.20;50.70;;;;;;7676906;23;19904;-74
2023/01/31 13:58:47;;;;;;;;;;;19.20;50.90;;;;;;7675468;23;19904;-74
2023/01/31 14:01:49;;;;;;;;;;;19.20;50.90;;;;;;7677632;23;19904;-74
2023/01/31 14:04:49;;;;;;;;;;;19.20;51.10;;;;;;7678868;23;19994;-74
2023/01/31 14:08:10;;;;;;;;;;;19.20;51.10;;;;;;7677472;23;19954;-70
2023/01/31 14:11:16;;;;;;;;;;;19.20;50.90;;;;;;7673218;23;19935;-69
2023/01/31 14:14:19;;;;;;;;;;;19.20;51.10;;;;;;7673307;23;19967;-69
2023/01/31 14:17:20;;;;;;;;;;;19.20;51.00;;;;;;7673248;23;19915;-69
2023/01/31 14:20:25;;;;;;;;;;;19.20;51.10;;;;;;7673026;23;19909;-69
2023/01/31 14:23:31;;;;;;;;;;;19.20;51.10;;;;;;7672148;23;19908;-68
2023/01/31 14:26:31;;;;;;;;;;;19.20;51.20;;;;;;7672720;23;19904;-69
2023/01/31 14:29:33;;;;;;;;;;;19.20;51.10;;;;;;7672960;23;19908;-68
2023/01/31 14:32:36;;;;;;;;;;;19.20;51.10;;;;;;7673217;23;19927;-69
2023/01/31 14:35:43;;;;;;;;;;;19.10;51.10;;;;;;7671692;23;19937;-69
2023/01/31 14:38:50;;;;;;;;;;;19.10;51.00;;;;;;7671014;23;19908;-69
2023/01/31 14:41:53;;;;;;;;;;;19.20;51.10;;;;;;7672854;23;19983;-68
2023/01/31 14:44:58;;;;;;;;;;;19.20;51.20;;;;;;7673934;23;19912;-69
2023/01/31 14:48:10;;;;;;;;;;;19.20;51.20;;;;;;7671149;23;19904;-69
2023/01/31 14:51:16;;;;;;;;;;;19.20;51.10;;;;;;7671385;23;20257;-69
2023/01/31 14:54:40;;;;;;;;;;;19.20;51.10;;;;;;7671500;23;20438;-68
2023/01/31 14:57:42;;;;;;;;;;;19.20;51.10;;;;;;7659294;23;20320;-71
2023/01/31 15:00:50;;;;;;;;;;;19.20;51.10;;;;;;7673117;23;19908;-72
2023/01/31 15:03:57;;;;;;;;;;;19.20;51.30;;;;;;7675784;23;20247;-72
2023/01/31 15:06:58;;;;;;;;;;;19.20;51.10;;;;;;7675586;23;19904;-71
2023/01/31 15:09:58;;;;;;;;;;;19.10;50.20;;;;;;7675481;23;19916;-70
2023/01/31 15:12:59;;;;;;;;;;;19.10;49.80;;;;;;7675993;23;19904;-70
2023/01/31 15:16:02;;;;;;;;;;;19.10;48.90;;;;;;7676099;23;19958;-70
2023/01/31 15:19:06;;;;;;;;;;;19.10;48.40;;;;;;7675626;23;19916;-73
2023/01/31 15:22:08;;;;;;;;;;;19.00;48.00;;;;;;7674548;23;19905;-70
2023/01/31 15:25:21;;;;;;;;;;;19.10;47.80;;;;;;7676979;23;19916;-71
2023/01/31 15:28:24;;;;;;;;;;;19.00;47.50;;;;;;7675970;23;19904;-67
2023/01/31 15:31:35;;;;;;;;;;;19.00;47.50;;;;;;7675091;23;19917;-68
2023/01/31 15:34:40;;;;;;;;;;;19.00;47.40;;;;;;7675121;23;19909;-66
2023/01/31 15:37:40;;;;;;;;;;;19.00;47.40;;;;;;7675741;23;19908;-77
2023/01/31 15:40:41;;;;;;;;;;;19.00;47.40;;;;;;7674302;23;19911;-73
2023/01/31 15:43:42;;;;;;;;;;;19.00;47.40;;;;;;7674130;23;19912;-69
2023/01/31 15:46:43;;;;;;;;;;;19.00;47.30;;;;;;7674458;23;19987;-76
2023/01/31 15:49:44;;;;;;;;;;;19.00;47.50;;;;;;7674006;23;19915;-67
2023/01/31 15:52:45;;;;;;;;;;;19.00;47.30;;;;;;7675338;23;19908;-69
2023/01/31 15:55:46;;;;;;;;;;;19.00;47.50;;;;;;7676463;23;19909;-69
2023/01/31 15:58:49;;;;;;;;;;;19.00;47.40;;;;;;7673493;23;19908;-70
2023/01/31 16:01:50;;;;;;;;;;;19.00;47.50;;;;;;7675596;23;19908;-70
2023/01/31 16:04:51;;;;;;;;;;;19.00;47.80;;;;;;7673615;23;19908;-69
2023/01/31 16:07:51;;;;;;;;;;;19.00;48.10;;;;;;7675279;23;20382;-70
2023/01/31 16:10:52;;;;;;;;;;;19.00;48.50;;;;;;7673048;23;19928;-72
2023/01/31 16:13:55;;;;;;;;;;;19.00;48.60;;;;;;7674719;23;19908;-70
2023/01/31 16:16:57;;;;;;;;;;;19.00;48.80;;;;;;7675255;23;19908;-69
2023/01/31 16:19:57;;;;;;;;;;;19.10;49.00;;;;;;7674840;23;19959;-71
2023/01/31 16:22:58;;;;;;;;;;;19.10;49.10;;;;;;7675090;23;19912;-69
2023/01/31 16:25:58;;;;;;;;;;;19.00;49.10;;;;;;7674799;23;19908;-70
2023/01/31 16:29:04;;;;;;;;;;;19.10;49.20;;;;;;7674951;23;19908;-69
2023/01/31 16:32:14;;;;;;;;;;;19.10;49.30;;;;;;7673320;23;19916;-69
2023/01/31 16:35:19;;;;;;;;;;;19.10;49.40;;;;;;7675037;23;19987;-69
2023/01/31 16:38:25;;;;;;;;;;;19.00;49.40;;;;;;7673489;23;19904;-69
2023/01/31 16:41:46;;;;;;;;;;;19.10;49.50;;;;;;7674722;23;19927;-69
2023/01/31 16:44:47;;;;;;;;;;;19.10;49.50;;;;;;7674446;23;19915;-69
2023/01/31 16:47:50;;;;;;;;;;;19.10;49.60;;;;;;7675127;23;19932;-69
2023/01/31 16:50:53;;;;;;;;;;;19.10;49.60;;;;;;7672688;23;19970;-69
2023/01/31 16:54:12;;;;;;;;;;;19.10;49.70;;;;;;7675284;23;19920;-69
2023/01/31 16:57:24;;;;;;;;;;;19.10;49.70;;;;;;7675123;23;19912;-69
2023/01/31 17:00:26;;;;;;;;;;;19.10;49.80;;;;;;7674647;23;19904;-72
2023/01/31 17:03:28;;;;;;;;;;;19.10;49.80;;;;;;7674622;23;19908;-69
2023/01/31 17:06:29;;;;;;;;;;;19.10;49.90;;;;;;7669029;23;19908;-69
2023/01/31 17:09:30;;;;;;;;;;;19.10;49.90;;;;;;7674307;23;19931;-69
2023/01/31 17:12:32;;;;;;;;;;;19.10;49.90;;;;;;7673717;23;19915;-69
2023/01/31 17:15:33;;;;;;;;;;;19.10;50.00;;;;;;7675130;23;19974;-69
2023/01/31 17:18:34;;;;;;;;;;;19.10;50.00;;;;;;7673089;23;19905;-68
2023/01/31 17:21:38;;;;;;;;;;;19.10;50.00;;;;;;7671591;23;20252;-69
2023/01/31 17:24:39;;;;;;;;;;;19.10;50.10;;;;;;7671727;23;19999;-69
2023/01/31 17:27:39;;;;;;;;;;;19.10;50.10;;;;;;7672055;23;19910;-69
2023/01/31 17:30:40;;;;;;;;;;;19.10;50.10;;;;;;7671797;23;19904;-70
2023/01/31 17:33:41;;;;;;;;;;;19.10;50.20;;;;;;7671964;23;19959;-70
2023/01/31 17:36:42;;;;;;;;;;;19.10;50.20;;;;;;7671721;23;19979;-74
2023/01/31 17:39:43;;;;;;;;;;;19.10;50.20;;;;;;7671817;23;19908;-70
2023/01/31 17:42:44;;;;;;;;;;;19.10;50.30;;;;;;7671868;23;19916;-71
2023/01/31 17:45:44;;;;;;;;;;;19.10;50.30;;;;;;7671955;23;19904;-69
2023/01/31 17:48:45;;;;;;;;;;;19.10;50.30;;;;;;7670982;23;20324;-70
2023/01/31 17:51:46;;;;;;;;;;;19.10;50.20;;;;;;7669950;23;19904;-68
2023/01/31 17:54:46;;;;;;;;;;;19.10;50.20;;;;;;7671825;23;19905;-71